sensor_id;sensor_type;location;lat;lon;timestamp;temperature;humidity
19000;DHT22;9633;50.980;13.850;2024-01-06T00:01:22;1.80;99.90
19000;DHT22;9633;50.980;13.850;2024-01-06T00:02:56;1.70;99.90
19000;DHT22;9633;50.980;13.850;2024-01-06T00:04:28;1.70;99.90
19000;DHT22;9633;50.980;13.850;2024-01-06T00:06:01;1.80;99.90
19000;DHT22;9633;50.980;13.850;2024-01-06T00:07:34;1.80;99.90
19000;DHT22;9633;50.980;13.850;2024-01-06T00:09:07;1.80;99.90
19000;DHT22;9633;50.980;13.850;2024-01-06T00:10:40;1.90;99.90
19000;DHT22;9633;50.980;13.850;2024-01-06T00:12:13;2.00;99.90
19000;DHT22;9633;50.980;13.850;2024-01-06T00:13:47;2.20;99.90
19000;DHT22;9633;50.980;13.850;2024-01-06T00:15:20;2.20;99.90
19000;DHT22;9633;50.980;13.850;2024-01-06T00:16:55;2.10;99.90
19000;DHT22;9633;50.980;13.850;2024-01-06T00:18:29;2.10;99.90
19000;DHT22;9633;50.980;13.850;2024-01-06T00:20:02;2.10;99.90
19000;DHT22;9633;50.980;13.850;2024-01-06T00:21:36;2.20;99.90
19000;DHT22;9633;50.980;13.850;2024-01-06T00:23:09;2.30;99.90
19000;DHT22;9633;50.980;13.850;2024-01-06T00:24:42;2.20;99.90
19000;DHT22;9633;50.980;13.850;2024-01-06T00:26:15;2.20;99.90
19000;DHT22;9633;50.980;13.850;2024-01-06T00:27:48;2.00;99.90
19000;DHT22;9633;50.980;13.850;2024-01-06T00:29:22;1.80;99.90
19000;DHT22;9633;50.980;13.850;2024-01-06T00:30:55;1.70;99.90
19000;DHT22;9633;50.980;13.850;2024-01-06T00:32:31;1.70;99.90
19000;DHT22;9633;50.980;13.850;2024-01-06T00:34:06;1.60;99.90
19000;DHT22;9633;50.980;13.850;2024-01-06T00:35:40;1.70;99.90
19000;DHT22;9633;50.980;13.850;2024-01-06T00:37:13;1.80;99.90
19000;DHT22;9633;50.980;13.850;2024-01-06T00:38:46;1.90;99.90
19000;DHT22;9633;50.980;13.850;2024-01-06T00:40:19;1.90;99.90
19000;DHT22;9633;50.980;13.850;2024-01-06T00:41:52;2.00;99.90
19000;DHT22;9633;50.980;13.850;2024-01-06T00:43:25;2.10;99.90
19000;DHT22;9633;50.980;13.850;2024-01-06T00:44:58;2.10;99.90
19000;DHT22;9633;50.980;13.850;2024-01-06T00:46:31;2.20;99.90
19000;DHT22;9633;50.980;13.850;2024-01-06T00:48:06;2.10;99.90
19000;DHT22;9633;50.980;13.850;2024-01-06T00:49:39;2.00;99.90
19000;DHT22;9633;50.980;13.850;2024-01-06T00:51:12;1.90;99.90
19000;DHT22;9633;50.980;13.850;2024-01-06T00:52:46;1.70;99.90
19000;DHT22;9633;50.980;13.850;2024-01-06T00:54:18;1.60;99.90
19000;DHT22;9633;50.980;13.850;2024-01-06T00:55:52;1.50;99.90
19000;DHT22;9633;50.980;13.850;2024-01-06T00:57:24;1.40;99.90
19000;DHT22;9633;50.980;13.850;2024-01-06T00:58:57;1.40;99.90
19000;DHT22;9633;50.980;13.850;2024-01-06T01:00:30;1.40;99.90
19000;DHT22;9633;50.980;13.850;2024-01-06T01:02:04;1.30;99.90
19000;DHT22;9633;50.980;13.850;2024-01-06T01:03:38;1.20;99.90
19000;DHT22;9633;50.980;13.850;2024-01-06T01:05:11;1.30;99.90
19000;DHT22;9633;50.980;13.850;2024-01-06T01:06:44;1.20;99.90
19000;DHT22;9633;50.980;13.850;2024-01-06T01:08:17;1.30;99.90
19000;DHT22;9633;50.980;13.850;2024-01-06T01:09:50;1.40;99.90
19000;DHT22;9633;50.980;13.850;2024-01-06T01:11:23;1.50;99.90
19000;DHT22;9633;50.980;13.850;2024-01-06T01:12:56;1.50;99.90
19000;DHT22;9633;50.980;13.850;2024-01-06T01:14:30;1.60;99.90
19000;DHT22;9633;50.980;13.850;2024-01-06T01:16:03;1.60;99.90
19000;DHT22;9633;50.980;13.850;2024-01-06T01:17:36;1.50;99.90
19000;DHT22;9633;50.980;13.850;2024-01-06T01:19:11;1.40;99.90
19000;DHT22;9633;50.980;13.850;2024-01-06T01:20:44;1.30;99.90
19000;DHT22;9633;50.980;13.850;2024-01-06T01:22:18;1.30;99.90
19000;DHT22;9633;50.980;13.850;2024-01-06T01:23:50;1.20;99.90
19000;DHT22;9633;50.980;13.850;2024-01-06T01:25:24;1.20;99.90
19000;DHT22;9633;50.980;13.850;2024-01-06T01:26:56;1.20;99.90
19000;DHT22;9633;50.980;13.850;2024-01-06T01:28:29;1.20;99.90
19000;DHT22;9633;50.980;13.850;2024-01-06T01:30:02;1.20;99.90
19000;DHT22;9633;50.980;13.850;2024-01-06T01:31:36;1.30;99.90
19000;DHT22;9633;50.980;13.850;2024-01-06T01:33:09;1.50;99.90
19000;DHT22;9633;50.980;13.850;2024-01-06T01:34:45;1.60;99.90
19000;DHT22;9633;50.980;13.850;2024-01-06T01:36:17;1.70;99.90
19000;DHT22;9633;50.980;13.850;2024-01-06T01:37:51;1.70;99.90
19000;DHT22;9633;50.980;13.850;2024-01-06T01:39:23;1.80;99.90
19000;DHT22;9633;50.980;13.850;2024-01-06T01:40:57;1.70;99.90
19000;DHT22;9633;50.980;13.850;2024-01-06T01:42:32;1.80;99.90
19000;DHT22;9633;50.980;13.850;2024-01-06T01:44:04;1.70;99.90
19000;DHT22;9633;50.980;13.850;2024-01-06T01:45:38;1.70;99.90
19000;DHT22;9633;50.980;13.850;2024-01-06T01:47:11;1.60;99.90
19000;DHT22;9633;50.980;13.850;2024-01-06T01:48:47;1.50;99.90
19000;DHT22;9633;50.980;13.850;2024-01-06T01:50:22;1.30;99.90
19000;DHT22;9633;50.980;13.850;2024-01-06T01:51:55;1.20;99.90
19000;DHT22;9633;50.980;13.850;2024-01-06T01:53:29;1.20;99.90
19000;DHT22;9633;50.980;13.850;2024-01-06T01:55:03;1.00;99.90
19000;DHT22;9633;50.980;13.850;2024-01-06T01:56:39;0.80;99.90
19000;DHT22;9633;50.980;13.850;2024-01-06T01:58:14;0.80;99.90
19000;DHT22;9633;50.980;13.850;2024-01-06T01:59:48;0.80;99.90
19000;DHT22;9633;50.980;13.850;2024-01-06T02:01:22;0.80;99.90
19000;DHT22;9633;50.980;13.850;2024-01-06T02:02:54;0.80;99.90
19000;DHT22;9633;50.980;13.850;2024-01-06T02:04:28;0.80;99.90
19000;DHT22;9633;50.980;13.850;2024-01-06T02:06:02;0.70;99.90
19000;DHT22;9633;50.980;13.850;2024-01-06T02:07:36;0.70;99.90
19000;DHT22;9633;50.980;13.850;2024-01-06T02:09:08;0.70;99.90
19000;DHT22;9633;50.980;13.850;2024-01-06T02:10:42;0.60;99.90
19000;DHT22;9633;50.980;13.850;2024-01-06T02:12:14;0.70;99.90
19000;DHT22;9633;50.980;13.850;2024-01-06T02:13:48;0.70;99.90
19000;DHT22;9633;50.980;13.850;2024-01-06T02:15:20;0.70;99.90
19000;DHT22;9633;50.980;13.850;2024-01-06T02:16:54;0.70;99.90
19000;DHT22;9633;50.980;13.850;2024-01-06T02:18:27;0.70;99.90
19000;DHT22;9633;50.980;13.850;2024-01-06T02:20:00;0.70;99.90
19000;DHT22;9633;50.980;13.850;2024-01-06T02:21:36;0.60;99.90
19000;DHT22;9633;50.980;13.850;2024-01-06T02:23:13;0.60;99.90
19000;DHT22;9633;50.980;13.850;2024-01-06T02:24:47;0.70;99.90
19000;DHT22;9633;50.980;13.850;2024-01-06T02:26:20;0.70;99.90
19000;DHT22;9633;50.980;13.850;2024-01-06T02:27:53;0.60;99.90
19000;DHT22;9633;50.980;13.850;2024-01-06T02:29:26;0.60;99.90
19000;DHT22;9633;50.980;13.850;2024-01-06T02:31:00;0.50;99.90
19000;DHT22;9633;50.980;13.850;2024-01-06T02:32:32;0.40;99.90
19000;DHT22;9633;50.980;13.850;2024-01-06T02:34:06;0.30;99.90
19000;DHT22;9633;50.980;13.850;2024-01-06T02:35:39;0.20;99.90
19000;DHT22;9633;50.980;13.850;2024-01-06T02:37:13;0.20;99.90
19000;DHT22;9633;50.980;13.850;2024-01-06T02:38:47;0.20;99.90
19000;DHT22;9633;50.980;13.850;2024-01-06T02:40:20;0.30;99.90
19000;DHT22;9633;50.980;13.850;2024-01-06T02:41:53;0.50;99.90
19000;DHT22;9633;50.980;13.850;2024-01-06T02:43:26;0.50;99.90
19000;DHT22;9633;50.980;13.850;2024-01-06T02:44:58;0.40;99.90
19000;DHT22;9633;50.980;13.850;2024-01-06T02:46:32;0.30;99.90
19000;DHT22;9633;50.980;13.850;2024-01-06T02:48:06;0.30;99.90
19000;DHT22;9633;50.980;13.850;2024-01-06T02:49:39;0.30;99.90
19000;DHT22;9633;50.980;13.850;2024-01-06T02:51:12;0.30;99.90
19000;DHT22;9633;50.980;13.850;2024-01-06T02:52:47;0.30;99.90
19000;DHT22;9633;50.980;13.850;2024-01-06T02:54:22;0.40;99.90
19000;DHT22;9633;50.980;13.850;2024-01-06T02:55:54;0.50;99.90
19000;DHT22;9633;50.980;13.850;2024-01-06T02:57:27;0.60;99.90
19000;DHT22;9633;50.980;13.850;2024-01-06T02:59:00;0.70;99.90
19000;DHT22;9633;50.980;13.850;2024-01-06T03:00:33;0.70;99.90
19000;DHT22;9633;50.980;13.850;2024-01-06T03:02:07;0.80;99.90
19000;DHT22;9633;50.980;13.850;2024-01-06T03:03:40;0.70;99.90
19000;DHT22;9633;50.980;13.850;2024-01-06T03:05:13;0.60;99.90
19000;DHT22;9633;50.980;13.850;2024-01-06T03:06:47;0.50;99.90
19000;DHT22;9633;50.980;13.850;2024-01-06T03:08:24;0.50;99.90
19000;DHT22;9633;50.980;13.850;2024-01-06T03:09:58;0.50;99.90
19000;DHT22;9633;50.980;13.850;2024-01-06T03:11:31;0.40;99.90
19000;DHT22;9633;50.980;13.850;2024-01-06T03:13:04;0.30;99.90
19000;DHT22;9633;50.980;13.850;2024-01-06T03:14:37;0.20;99.90
19000;DHT22;9633;50.980;13.850;2024-01-06T03:16:11;0.20;99.90
19000;DHT22;9633;50.980;13.850;2024-01-06T03:17:45;0.20;99.90
19000;DHT22;9633;50.980;13.850;2024-01-06T03:19:17;0.10;99.90
19000;DHT22;9633;50.980;13.850;2024-01-06T03:20:51;0.10;99.90
19000;DHT22;9633;50.980;13.850;2024-01-06T03:22:24;0.20;99.90
19000;DHT22;9633;50.980;13.850;2024-01-06T03:23:57;0.30;99.90
19000;DHT22;9633;50.980;13.850;2024-01-06T03:25:31;0.30;99.90
19000;DHT22;9633;50.980;13.850;2024-01-06T03:27:04;0.30;99.90
19000;DHT22;9633;50.980;13.850;2024-01-06T03:28:38;0.40;99.90
19000;DHT22;9633;50.980;13.850;2024-01-06T03:30:11;0.50;99.90
19000;DHT22;9633;50.980;13.850;2024-01-06T03:31:45;0.40;99.90
19000;DHT22;9633;50.980;13.850;2024-01-06T03:33:18;0.50;99.90
19000;DHT22;9633;50.980;13.850;2024-01-06T03:34:52;0.40;99.90
19000;DHT22;9633;50.980;13.850;2024-01-06T03:36:30;0.40;99.90
19000;DHT22;9633;50.980;13.850;2024-01-06T03:38:04;0.50;99.90
19000;DHT22;9633;50.980;13.850;2024-01-06T03:39:36;0.50;99.90
19000;DHT22;9633;50.980;13.850;2024-01-06T03:41:11;0.50;99.90
19000;DHT22;9633;50.980;13.850;2024-01-06T03:42:43;0.40;99.90
19000;DHT22;9633;50.980;13.850;2024-01-06T03:44:17;0.40;99.90
19000;DHT22;9633;50.980;13.850;2024-01-06T03:45:50;0.40;99.90
19000;DHT22;9633;50.980;13.850;2024-01-06T03:47:23;0.30;99.90
19000;DHT22;9633;50.980;13.850;2024-01-06T03:48:55;0.40;99.90
19000;DHT22;9633;50.980;13.850;2024-01-06T03:50:29;0.50;99.90
19000;DHT22;9633;50.980;13.850;2024-01-06T03:52:01;0.50;99.90
19000;DHT22;9633;50.980;13.850;2024-01-06T03:53:35;0.60;99.90
19000;DHT22;9633;50.980;13.850;2024-01-06T03:55:09;0.60;99.90
19000;DHT22;9633;50.980;13.850;2024-01-06T03:56:44;0.50;99.90
19000;DHT22;9633;50.980;13.850;2024-01-06T03:58:16;0.50;99.90
19000;DHT22;9633;50.980;13.850;2024-01-06T03:59:50;0.40;99.90
19000;DHT22;9633;50.980;13.850;2024-01-06T04:01:22;0.40;99.90
19000;DHT22;9633;50.980;13.850;2024-01-06T04:02:55;0.60;99.90
19000;DHT22;9633;50.980;13.850;2024-01-06T04:04:28;0.80;99.90
19000;DHT22;9633;50.980;13.850;2024-01-06T04:06:02;1.00;99.90
19000;DHT22;9633;50.980;13.850;2024-01-06T04:07:35;1.00;99.90
19000;DHT22;9633;50.980;13.850;2024-01-06T04:09:08;1.00;99.90
19000;DHT22;9633;50.980;13.850;2024-01-06T04:10:41;1.00;99.90
19000;DHT22;9633;50.980;13.850;2024-01-06T04:12:16;0.80;99.90
19000;DHT22;9633;50.980;13.850;2024-01-06T04:13:50;0.70;99.90
19000;DHT22;9633;50.980;13.850;2024-01-06T04:15:23;0.70;99.90
19000;DHT22;9633;50.980;13.850;2024-01-06T04:16:56;0.80;99.90
19000;DHT22;9633;50.980;13.850;2024-01-06T04:18:29;0.80;99.90
19000;DHT22;9633;50.980;13.850;2024-01-06T04:20:02;0.80;99.90
19000;DHT22;9633;50.980;13.850;2024-01-06T04:21:36;0.80;99.90
19000;DHT22;9633;50.980;13.850;2024-01-06T04:23:08;0.80;99.90
19000;DHT22;9633;50.980;13.850;2024-01-06T04:24:41;0.80;99.90
19000;DHT22;9633;50.980;13.850;2024-01-06T04:26:14;0.70;99.90
19000;DHT22;9633;50.980;13.850;2024-01-06T04:27:49;0.70;99.90
19000;DHT22;9633;50.980;13.850;2024-01-06T04:29:23;0.70;99.90
19000;DHT22;9633;50.980;13.850;2024-01-06T04:30:55;0.70;99.90
19000;DHT22;9633;50.980;13.850;2024-01-06T04:32:30;0.80;99.90
19000;DHT22;9633;50.980;13.850;2024-01-06T04:34:03;0.80;99.90
19000;DHT22;9633;50.980;13.850;2024-01-06T04:35:36;0.90;99.90
19000;DHT22;9633;50.980;13.850;2024-01-06T04:37:09;1.00;99.90
19000;DHT22;9633;50.980;13.850;2024-01-06T04:38:43;0.80;99.90
19000;DHT22;9633;50.980;13.850;2024-01-06T04:40:16;0.60;99.90
19000;DHT22;9633;50.980;13.850;2024-01-06T04:41:51;0.40;99.90
19000;DHT22;9633;50.980;13.850;2024-01-06T04:43:26;0.40;99.90
19000;DHT22;9633;50.980;13.850;2024-01-06T04:44:58;0.40;99.90
19000;DHT22;9633;50.980;13.850;2024-01-06T04:46:32;0.40;99.90
19000;DHT22;9633;50.980;13.850;2024-01-06T04:48:06;0.30;99.90
19000;DHT22;9633;50.980;13.850;2024-01-06T04:49:39;0.20;99.90
19000;DHT22;9633;50.980;13.850;2024-01-06T04:51:12;0.10;99.90
19000;DHT22;9633;50.980;13.850;2024-01-06T04:52:45;-0.10;99.90
19000;DHT22;9633;50.980;13.850;2024-01-06T04:54:19;-0.10;99.90
19000;DHT22;9633;50.980;13.850;2024-01-06T04:55:51;0.00;99.90
19000;DHT22;9633;50.980;13.850;2024-01-06T04:57:24;0.10;99.90
19000;DHT22;9633;50.980;13.850;2024-01-06T04:58:58;0.20;99.90
19000;DHT22;9633;50.980;13.850;2024-01-06T05:00:31;0.30;99.90
19000;DHT22;9633;50.980;13.850;2024-01-06T05:02:04;0.30;99.90
19000;DHT22;9633;50.980;13.850;2024-01-06T05:03:38;0.30;99.90
19000;DHT22;9633;50.980;13.850;2024-01-06T05:05:10;0.20;99.90
19000;DHT22;9633;50.980;13.850;2024-01-06T05:06:44;0.00;99.90
19000;DHT22;9633;50.980;13.850;2024-01-06T05:08:16;-0.10;99.90
19000;DHT22;9633;50.980;13.850;2024-01-06T05:09:50;-0.10;99.90
19000;DHT22;9633;50.980;13.850;2024-01-06T05:11:22;0.00;99.90
19000;DHT22;9633;50.980;13.850;2024-01-06T05:12:56;0.00;99.90
19000;DHT22;9633;50.980;13.850;2024-01-06T05:14:29;0.00;99.90
19000;DHT22;9633;50.980;13.850;2024-01-06T05:16:04;0.10;99.90
19000;DHT22;9633;50.980;13.850;2024-01-06T05:17:36;0.10;99.90
19000;DHT22;9633;50.980;13.850;2024-01-06T05:19:11;0.10;99.90
19000;DHT22;9633;50.980;13.850;2024-01-06T05:20:44;0.00;99.90
19000;DHT22;9633;50.980;13.850;2024-01-06T05:22:18;0.00;99.90
19000;DHT22;9633;50.980;13.850;2024-01-06T05:23:51;0.00;99.90
19000;DHT22;9633;50.980;13.850;2024-01-06T05:25:25;0.00;99.90
19000;DHT22;9633;50.980;13.850;2024-01-06T05:26:57;0.20;99.90
19000;DHT22;9633;50.980;13.850;2024-01-06T05:28:31;0.30;99.90
19000;DHT22;9633;50.980;13.850;2024-01-06T05:30:07;0.30;99.90
19000;DHT22;9633;50.980;13.850;2024-01-06T05:31:40;0.30;99.90
19000;DHT22;9633;50.980;13.850;2024-01-06T05:33:16;0.30;99.90
19000;DHT22;9633;50.980;13.850;2024-01-06T05:34:49;0.40;99.90
19000;DHT22;9633;50.980;13.850;2024-01-06T05:36:22;0.40;99.90
19000;DHT22;9633;50.980;13.850;2024-01-06T05:37:55;0.40;99.90
19000;DHT22;9633;50.980;13.850;2024-01-06T05:39:28;0.40;99.90
19000;DHT22;9633;50.980;13.850;2024-01-06T05:41:01;0.50;99.90
19000;DHT22;9633;50.980;13.850;2024-01-06T05:42:34;0.60;99.90
19000;DHT22;9633;50.980;13.850;2024-01-06T05:44:08;0.90;99.90
19000;DHT22;9633;50.980;13.850;2024-01-06T05:45:41;0.90;99.90
19000;DHT22;9633;50.980;13.850;2024-01-06T05:47:15;1.00;99.90
19000;DHT22;9633;50.980;13.850;2024-01-06T05:48:49;1.20;99.90
19000;DHT22;9633;50.980;13.850;2024-01-06T05:50:22;1.30;99.90
19000;DHT22;9633;50.980;13.850;2024-01-06T05:51:57;1.40;99.90
19000;DHT22;9633;50.980;13.850;2024-01-06T05:53:31;1.40;99.90
19000;DHT22;9633;50.980;13.850;2024-01-06T05:55:04;1.40;99.90
19000;DHT22;9633;50.980;13.850;2024-01-06T05:56:38;1.30;99.90
19000;DHT22;9633;50.980;13.850;2024-01-06T05:58:11;1.20;99.90
19000;DHT22;9633;50.980;13.850;2024-01-06T05:59:44;1.20;99.90
19000;DHT22;9633;50.980;13.850;2024-01-06T06:01:18;1.20;99.90
19000;DHT22;9633;50.980;13.850;2024-01-06T06:02:54;1.20;99.90
19000;DHT22;9633;50.980;13.850;2024-01-06T06:04:27;1.30;99.90
19000;DHT22;9633;50.980;13.850;2024-01-06T06:06:01;1.30;99.90
19000;DHT22;9633;50.980;13.850;2024-01-06T06:07:34;1.30;99.90
19000;DHT22;9633;50.980;13.850;2024-01-06T06:09:11;1.30;99.90
19000;DHT22;9633;50.980;13.850;2024-01-06T06:10:45;1.30;99.90
19000;DHT22;9633;50.980;13.850;2024-01-06T06:12:34;1.30;99.90
19000;DHT22;9633;50.980;13.850;2024-01-06T06:14:07;1.30;99.90
19000;DHT22;9633;50.980;13.850;2024-01-06T06:15:40;1.40;99.90
19000;DHT22;9633;50.980;13.850;2024-01-06T06:17:14;1.40;99.90
19000;DHT22;9633;50.980;13.850;2024-01-06T06:18:48;1.40;99.90
19000;DHT22;9633;50.980;13.850;2024-01-06T06:20:20;1.30;99.90
19000;DHT22;9633;50.980;13.850;2024-01-06T06:21:54;1.40;99.90
19000;DHT22;9633;50.980;13.850;2024-01-06T06:23:27;1.40;99.90
19000;DHT22;9633;50.980;13.850;2024-01-06T06:25:04;1.40;99.90
19000;DHT22;9633;50.980;13.850;2024-01-06T06:26:36;1.50;99.90
19000;DHT22;9633;50.980;13.850;2024-01-06T06:28:13;1.50;99.90
19000;DHT22;9633;50.980;13.850;2024-01-06T06:29:46;1.60;99.90
19000;DHT22;9633;50.980;13.850;2024-01-06T06:31:19;1.60;99.90
19000;DHT22;9633;50.980;13.850;2024-01-06T06:32:53;1.60;99.90
19000;DHT22;9633;50.980;13.850;2024-01-06T06:34:27;1.70;99.90
19000;DHT22;9633;50.980;13.850;2024-01-06T06:36:00;1.60;99.90
19000;DHT22;9633;50.980;13.850;2024-01-06T06:37:34;1.60;99.90
19000;DHT22;9633;50.980;13.850;2024-01-06T06:39:06;1.60;99.90
19000;DHT22;9633;50.980;13.850;2024-01-06T06:40:40;1.60;99.90
19000;DHT22;9633;50.980;13.850;2024-01-06T06:42:12;1.60;99.90
19000;DHT22;9633;50.980;13.850;2024-01-06T06:43:46;1.60;99.90
19000;DHT22;9633;50.980;13.850;2024-01-06T06:45:18;1.70;99.90
19000;DHT22;9633;50.980;13.850;2024-01-06T06:46:55;1.70;99.90
19000;DHT22;9633;50.980;13.850;2024-01-06T06:48:29;1.80;99.90
19000;DHT22;9633;50.980;13.850;2024-01-06T06:50:02;1.80;99.90
19000;DHT22;9633;50.980;13.850;2024-01-06T06:51:35;1.80;99.90
19000;DHT22;9633;50.980;13.850;2024-01-06T06:53:09;1.80;99.90
19000;DHT22;9633;50.980;13.850;2024-01-06T06:54:41;1.80;99.90
19000;DHT22;9633;50.980;13.850;2024-01-06T06:56:15;1.70;99.90
19000;DHT22;9633;50.980;13.850;2024-01-06T06:57:49;1.70;99.90
19000;DHT22;9633;50.980;13.850;2024-01-06T06:59:23;1.70;99.90
19000;DHT22;9633;50.980;13.850;2024-01-06T07:00:56;1.80;99.90
19000;DHT22;9633;50.980;13.850;2024-01-06T07:02:29;1.90;99.90
19000;DHT22;9633;50.980;13.850;2024-01-06T07:04:03;2.00;99.90
19000;DHT22;9633;50.980;13.850;2024-01-06T07:05:37;2.00;99.90
19000;DHT22;9633;50.980;13.850;2024-01-06T07:07:11;2.00;99.90
19000;DHT22;9633;50.980;13.850;2024-01-06T07:08:45;2.00;99.90
19000;DHT22;9633;50.980;13.850;2024-01-06T07:10:17;2.00;99.90
19000;DHT22;9633;50.980;13.850;2024-01-06T07:11:51;1.90;99.90
19000;DHT22;9633;50.980;13.850;2024-01-06T07:13:23;2.00;99.90
19000;DHT22;9633;50.980;13.850;2024-01-06T07:14:58;2.00;99.90
19000;DHT22;9633;50.980;13.850;2024-01-06T07:16:31;2.10;99.90
19000;DHT22;9633;50.980;13.850;2024-01-06T07:18:04;2.20;99.90
19000;DHT22;9633;50.980;13.850;2024-01-06T07:19:38;2.20;99.90
19000;DHT22;9633;50.980;13.850;2024-01-06T07:21:12;2.20;99.90
19000;DHT22;9633;50.980;13.850;2024-01-06T07:22:45;2.10;99.90
19000;DHT22;9633;50.980;13.850;2024-01-06T07:24:19;2.10;99.90
19000;DHT22;9633;50.980;13.850;2024-01-06T07:25:51;2.20;99.90
19000;DHT22;9633;50.980;13.850;2024-01-06T07:27:26;2.20;99.90
19000;DHT22;9633;50.980;13.850;2024-01-06T07:28:58;2.20;99.90
19000;DHT22;9633;50.980;13.850;2024-01-06T07:30:32;2.30;99.90
19000;DHT22;9633;50.980;13.850;2024-01-06T07:32:06;2.30;99.90
19000;DHT22;9633;50.980;13.850;2024-01-06T07:33:39;2.20;99.90
19000;DHT22;9633;50.980;13.850;2024-01-06T07:35:15;2.30;99.90
19000;DHT22;9633;50.980;13.850;2024-01-06T07:36:48;2.30;99.90
19000;DHT22;9633;50.980;13.850;2024-01-06T07:38:21;2.40;99.90
19000;DHT22;9633;50.980;13.850;2024-01-06T07:39:55;2.40;99.90
19000;DHT22;9633;50.980;13.850;2024-01-06T07:41:27;2.40;99.90
19000;DHT22;9633;50.980;13.850;2024-01-06T07:43:03;2.40;99.90
19000;DHT22;9633;50.980;13.850;2024-01-06T07:44:36;2.40;99.90
19000;DHT22;9633;50.980;13.850;2024-01-06T07:46:10;2.50;99.90
19000;DHT22;9633;50.980;13.850;2024-01-06T07:47:43;2.50;99.90
19000;DHT22;9633;50.980;13.850;2024-01-06T07:49:16;2.60;99.90
19000;DHT22;9633;50.980;13.850;2024-01-06T07:50:51;2.60;99.90
19000;DHT22;9633;50.980;13.850;2024-01-06T07:52:24;2.60;99.90
19000;DHT22;9633;50.980;13.850;2024-01-06T07:53:57;2.60;99.90
19000;DHT22;9633;50.980;13.850;2024-01-06T07:55:30;2.70;99.90
19000;DHT22;9633;50.980;13.850;2024-01-06T07:57:04;2.70;99.90
19000;DHT22;9633;50.980;13.850;2024-01-06T07:58:37;2.70;99.90
19000;DHT22;9633;50.980;13.850;2024-01-06T08:00:11;2.80;99.90
19000;DHT22;9633;50.980;13.850;2024-01-06T08:01:51;2.80;99.90
19000;DHT22;9633;50.980;13.850;2024-01-06T08:03:25;2.80;99.90
19000;DHT22;9633;50.980;13.850;2024-01-06T08:04:58;2.80;99.90
19000;DHT22;9633;50.980;13.850;2024-01-06T08:06:33;2.80;99.90
19000;DHT22;9633;50.980;13.850;2024-01-06T08:08:05;2.90;99.90
19000;DHT22;9633;50.980;13.850;2024-01-06T08:09:39;2.90;99.90
19000;DHT22;9633;50.980;13.850;2024-01-06T08:11:14;3.00;99.90
19000;DHT22;9633;50.980;13.850;2024-01-06T08:12:48;3.00;99.90
19000;DHT22;9633;50.980;13.850;2024-01-06T08:14:21;3.00;99.90
19000;DHT22;9633;50.980;13.850;2024-01-06T08:15:54;3.00;99.90
19000;DHT22;9633;50.980;13.850;2024-01-06T08:17:27;3.10;99.90
19000;DHT22;9633;50.980;13.850;2024-01-06T08:19:00;3.10;99.90
19000;DHT22;9633;50.980;13.850;2024-01-06T08:20:35;3.20;99.90
19000;DHT22;9633;50.980;13.850;2024-01-06T08:22:09;3.20;99.90
19000;DHT22;9633;50.980;13.850;2024-01-06T08:23:42;3.20;99.90
19000;DHT22;9633;50.980;13.850;2024-01-06T08:25:14;3.20;99.90
19000;DHT22;9633;50.980;13.850;2024-01-06T08:26:49;3.30;99.90
19000;DHT22;9633;50.980;13.850;2024-01-06T08:28:21;3.30;99.90
19000;DHT22;9633;50.980;13.850;2024-01-06T08:29:55;3.30;99.90
19000;DHT22;9633;50.980;13.850;2024-01-06T08:31:28;3.40;99.90
19000;DHT22;9633;50.980;13.850;2024-01-06T08:33:02;3.40;99.90
19000;DHT22;9633;50.980;13.850;2024-01-06T08:34:35;3.40;99.90
19000;DHT22;9633;50.980;13.850;2024-01-06T08:36:08;3.40;99.90
19000;DHT22;9633;50.980;13.850;2024-01-06T08:37:43;3.30;99.90
19000;DHT22;9633;50.980;13.850;2024-01-06T08:39:16;3.50;99.90
19000;DHT22;9633;50.980;13.850;2024-01-06T08:40:49;3.50;99.90
19000;DHT22;9633;50.980;13.850;2024-01-06T08:42:22;3.50;99.90
19000;DHT22;9633;50.980;13.850;2024-01-06T08:43:56;3.60;99.90
19000;DHT22;9633;50.980;13.850;2024-01-06T08:45:29;3.60;99.90
19000;DHT22;9633;50.980;13.850;2024-01-06T08:47:03;3.70;99.90
19000;DHT22;9633;50.980;13.850;2024-01-06T08:48:45;3.70;99.90
19000;DHT22;9633;50.980;13.850;2024-01-06T08:50:19;3.70;99.90
19000;DHT22;9633;50.980;13.850;2024-01-06T08:51:52;3.70;99.90
19000;DHT22;9633;50.980;13.850;2024-01-06T08:53:26;3.80;99.90
19000;DHT22;9633;50.980;13.850;2024-01-06T08:55:00;3.70;99.90
19000;DHT22;9633;50.980;13.850;2024-01-06T08:56:33;3.70;99.90
19000;DHT22;9633;50.980;13.850;2024-01-06T08:58:06;3.70;99.90
19000;DHT22;9633;50.980;13.850;2024-01-06T08:59:39;3.70;99.90
19000;DHT22;9633;50.980;13.850;2024-01-06T09:01:13;3.70;99.90
19000;DHT22;9633;50.980;13.850;2024-01-06T09:02:45;3.70;99.90
19000;DHT22;9633;50.980;13.850;2024-01-06T09:04:19;3.70;99.90
19000;DHT22;9633;50.980;13.850;2024-01-06T09:05:52;3.70;99.90
19000;DHT22;9633;50.980;13.850;2024-01-06T09:07:26;3.80;99.90
19000;DHT22;9633;50.980;13.850;2024-01-06T09:09:00;3.90;99.90
19000;DHT22;9633;50.980;13.850;2024-01-06T09:10:33;3.90;99.90
19000;DHT22;9633;50.980;13.850;2024-01-06T09:12:06;3.90;99.90
19000;DHT22;9633;50.980;13.850;2024-01-06T09:13:40;4.00;99.90
19000;DHT22;9633;50.980;13.850;2024-01-06T09:15:12;4.00;99.90
19000;DHT22;9633;50.980;13.850;2024-01-06T09:16:46;4.00;99.90
19000;DHT22;9633;50.980;13.850;2024-01-06T09:18:18;4.10;99.90
19000;DHT22;9633;50.980;13.850;2024-01-06T09:19:52;4.20;99.90
19000;DHT22;9633;50.980;13.850;2024-01-06T09:21:26;4.30;99.90
19000;DHT22;9633;50.980;13.850;2024-01-06T09:22:59;4.40;99.90
19000;DHT22;9633;50.980;13.850;2024-01-06T09:24:34;4.40;99.90
19000;DHT22;9633;50.980;13.850;2024-01-06T09:26:07;4.50;99.90
19000;DHT22;9633;50.980;13.850;2024-01-06T09:27:40;4.50;99.90
19000;DHT22;9633;50.980;13.850;2024-01-06T09:29:12;4.50;99.90
19000;DHT22;9633;50.980;13.850;2024-01-06T09:30:51;4.60;99.90
19000;DHT22;9633;50.980;13.850;2024-01-06T09:32:27;4.60;99.90
19000;DHT22;9633;50.980;13.850;2024-01-06T09:34:00;4.70;99.90
19000;DHT22;9633;50.980;13.850;2024-01-06T09:35:33;4.70;99.90
19000;DHT22;9633;50.980;13.850;2024-01-06T09:37:07;4.80;99.90
19000;DHT22;9633;50.980;13.850;2024-01-06T09:38:40;4.90;99.90
19000;DHT22;9633;50.980;13.850;2024-01-06T09:40:23;4.90;99.90
19000;DHT22;9633;50.980;13.850;2024-01-06T09:41:55;4.90;99.90
19000;DHT22;9633;50.980;13.850;2024-01-06T09:43:30;5.00;99.90
19000;DHT22;9633;50.980;13.850;2024-01-06T09:45:04;5.10;99.90
19000;DHT22;9633;50.980;13.850;2024-01-06T09:46:38;5.10;99.90
19000;DHT22;9633;50.980;13.850;2024-01-06T09:48:13;5.10;99.90
19000;DHT22;9633;50.980;13.850;2024-01-06T09:49:49;5.10;99.90
19000;DHT22;9633;50.980;13.850;2024-01-06T09:51:23;5.10;99.90
19000;DHT22;9633;50.980;13.850;2024-01-06T09:52:56;5.30;99.90
19000;DHT22;9633;50.980;13.850;2024-01-06T09:54:40;5.40;99.90
19000;DHT22;9633;50.980;13.850;2024-01-06T09:56:15;5.40;99.90
19000;DHT22;9633;50.980;13.850;2024-01-06T09:57:49;5.50;99.90
19000;DHT22;9633;50.980;13.850;2024-01-06T09:59:22;5.50;99.90
19000;DHT22;9633;50.980;13.850;2024-01-06T10:00:55;5.50;99.90